createdAt,value
2018-01-28T00:00:28.405Z,6.40
2018-01-28T00:02:56.681Z,6.40
2018-01-28T00:05:24.949Z,6.30
2018-01-28T00:07:53.213Z,6.30
2018-01-28T00:10:21.486Z,6.20
2018-01-28T00:12:49.773Z,6.10
2018-01-28T00:15:18.068Z,6.10
2018-01-28T00:17:46.318Z,6.00
2018-01-28T00:20:14.647Z,6.00
2018-01-28T00:22:42.909Z,6.00
2018-01-28T00:25:11.194Z,5.90
2018-01-28T00:27:39.458Z,5.80
2018-01-28T00:30:07.698Z,5.80
2018-01-28T00:32:35.973Z,5.80
2018-01-28T00:35:04.982Z,5.80
2018-01-28T00:37:33.270Z,5.80
2018-01-28T00:40:01.499Z,5.80
2018-01-28T00:42:29.763Z,5.80
2018-01-28T00:44:58.038Z,5.80
2018-01-28T00:47:26.323Z,5.70
2018-01-28T00:49:54.615Z,5.70
2018-01-28T00:52:23.654Z,5.50
2018-01-28T00:54:51.892Z,5.50
2018-01-28T00:57:20.905Z,5.60
2018-01-28T00:59:49.147Z,5.50
2018-01-28T01:02:18.169Z,5.50
2018-01-28T01:04:46.405Z,5.50
2018-01-28T01:07:15.453Z,5.60
2018-01-28T01:09:43.712Z,5.50
2018-01-28T01:12:12.005Z,5.60
2018-01-28T01:14:40.266Z,5.60
2018-01-28T01:17:08.662Z,5.60
2018-01-28T01:19:36.889Z,5.70
2018-01-28T01:22:05.172Z,5.70
2018-01-28T01:24:33.405Z,5.70
2018-01-28T01:27:01.714Z,5.80
2018-01-28T01:29:31.507Z,5.80
2018-01-28T01:31:59.761Z,5.80
2018-01-28T01:34:27.992Z,5.80
2018-01-28T01:36:56.246Z,5.80
2018-01-28T01:39:24.475Z,5.80
2018-01-28T01:41:53.481Z,5.80
2018-01-28T01:44:21.744Z,5.80
2018-01-28T01:46:50.073Z,5.90
2018-01-28T01:49:34.594Z,6.00
2018-01-28T01:52:02.864Z,6.00
2018-01-28T01:54:31.859Z,6.10
2018-01-28T01:57:00.114Z,6.10
2018-01-28T01:59:29.143Z,6.10
2018-01-28T02:01:57.424Z,6.10
2018-01-28T02:04:25.661Z,6.10
2018-01-28T02:06:54.702Z,6.10
2018-01-28T02:09:23.734Z,6.10
2018-01-28T02:11:52.571Z,6.20
2018-01-28T02:14:20.826Z,6.20
2018-01-28T02:16:49.844Z,6.20
2018-01-28T02:19:18.116Z,6.20
2018-01-28T02:21:47.092Z,6.00
2018-01-28T02:24:16.101Z,6.10
2018-01-28T02:26:45.115Z,6.10
2018-01-28T02:29:13.373Z,6.10
2018-01-28T02:31:42.341Z,6.00
2018-01-28T02:34:11.406Z,6.00
2018-01-28T02:36:39.616Z,6.00
2018-01-28T02:39:07.891Z,6.00
2018-01-28T02:41:36.899Z,6.10
2018-01-28T02:44:05.942Z,6.00
2018-01-28T02:46:34.218Z,5.90
2018-01-28T02:49:02.489Z,5.90
2018-01-28T02:51:30.751Z,5.90
2018-01-28T02:53:59.045Z,5.80
2018-01-28T02:56:27.276Z,5.70
2018-01-28T02:58:56.302Z,5.60
2018-01-28T03:01:24.571Z,5.60
2018-01-28T03:03:52.814Z,5.70
2018-01-28T03:06:21.106Z,5.70
2018-01-28T03:08:50.083Z,5.80
2018-01-28T03:11:18.395Z,5.80
2018-01-28T03:13:47.389Z,5.80
2018-01-28T03:16:15.829Z,5.80
2018-01-28T03:18:44.045Z,5.80
2018-01-28T03:21:12.324Z,5.70
2018-01-28T03:23:41.316Z,5.70
2018-01-28T03:26:09.569Z,5.80
2018-01-28T03:28:38.606Z,5.80
2018-01-28T03:31:06.851Z,5.80
2018-01-28T03:33:35.885Z,5.90
2018-01-28T03:36:04.118Z,5.90
2018-01-28T03:38:33.148Z,5.90
2018-01-28T03:41:01.381Z,5.90
2018-01-28T03:43:29.640Z,5.90
2018-01-28T03:45:57.901Z,5.90
2018-01-28T03:48:26.964Z,6.00
2018-01-28T03:50:55.220Z,5.90
2018-01-28T03:53:24.228Z,6.10
2018-01-28T03:55:52.446Z,6.10
2018-01-28T03:58:20.669Z,6.00
2018-01-28T04:00:48.928Z,6.00
2018-01-28T04:03:17.184Z,6.10
2018-01-28T04:05:45.450Z,6.00
2018-01-28T04:08:13.705Z,6.00
2018-01-28T04:10:41.941Z,6.10
2018-01-28T04:13:11.073Z,6.10
2018-01-28T04:15:40.062Z,6.10
2018-01-28T04:18:08.305Z,6.10
2018-01-28T04:20:36.544Z,6.10
2018-01-28T04:23:04.818Z,6.10
2018-01-28T04:25:33.045Z,6.10
2018-01-28T04:28:02.064Z,6.10
2018-01-28T04:30:30.327Z,6.10
2018-01-28T04:32:59.335Z,6.10
2018-01-28T04:35:27.578Z,6.10
2018-01-28T04:37:56.641Z,6.10
2018-01-28T04:40:24.874Z,6.10
2018-01-28T04:42:53.868Z,6.10
2018-01-28T04:45:22.898Z,6.10
2018-01-28T04:47:51.184Z,6.10
2018-01-28T04:50:19.411Z,6.10
2018-01-28T04:52:48.435Z,6.10
2018-01-28T04:55:16.671Z,6.10
2018-01-28T04:57:45.705Z,6.10
2018-01-28T05:00:13.933Z,6.10
2018-01-28T05:02:43.675Z,6.30
2018-01-28T05:05:12.036Z,6.30
2018-01-28T05:07:40.289Z,6.30
2018-01-28T05:10:08.977Z,6.20
2018-01-28T05:12:37.206Z,6.30
2018-01-28T05:15:05.465Z,6.40
2018-01-28T05:17:34.497Z,6.40
2018-01-28T05:20:02.742Z,6.40
2018-01-28T05:22:31.753Z,6.40
2018-01-28T05:25:00.058Z,6.40
2018-01-28T05:27:28.316Z,6.30
2018-01-28T05:29:56.645Z,6.30
2018-01-28T05:32:24.879Z,6.30
2018-01-28T05:34:53.146Z,6.30
2018-01-28T05:37:22.151Z,6.30
2018-01-28T05:39:50.369Z,6.30
2018-01-28T05:42:20.129Z,6.30
2018-01-28T05:44:48.420Z,6.30
2018-01-28T05:47:16.673Z,6.30
2018-01-28T05:49:45.686Z,6.20
2018-01-28T05:52:13.933Z,6.20
2018-01-28T05:54:42.194Z,6.20
2018-01-28T05:57:10.437Z,6.20
2018-01-28T05:59:38.708Z,6.30
2018-01-28T06:02:06.945Z,6.30
2018-01-28T06:04:35.942Z,6.40
2018-01-28T06:07:04.940Z,6.30
2018-01-28T06:09:33.198Z,6.30
2018-01-28T06:12:02.226Z,6.40
2018-01-28T06:14:30.478Z,6.40
2018-01-28T06:16:59.511Z,6.40
2018-01-28T06:19:27.774Z,6.50
2018-01-28T06:21:56.052Z,6.40
2018-01-28T06:24:25.029Z,6.50
2018-01-28T06:26:53.306Z,6.50
2018-01-28T06:29:22.296Z,6.50
2018-01-28T06:31:51.326Z,6.50
2018-01-28T06:34:19.541Z,6.40
2018-01-28T06:36:47.806Z,6.50
2018-01-28T06:39:16.055Z,6.60
2018-01-28T06:41:44.278Z,6.50
2018-01-28T06:44:13.324Z,6.50
2018-01-28T06:46:41.548Z,6.50
2018-01-28T06:49:10.402Z,6.50
2018-01-28T06:51:38.623Z,6.50
2018-01-28T06:54:07.633Z,6.50
2018-01-28T06:56:36.678Z,6.50
2018-01-28T06:59:04.921Z,6.50
2018-01-28T07:01:33.152Z,6.50
2018-01-28T07:04:02.565Z,6.50
2018-01-28T07:06:31.085Z,6.50
2018-01-28T07:09:00.096Z,6.70
2018-01-28T07:11:28.375Z,6.60
2018-01-28T07:13:56.750Z,6.70
2018-01-28T07:16:25.725Z,6.60
2018-01-28T07:18:53.972Z,6.60
2018-01-28T07:21:22.242Z,6.70
2018-01-28T07:23:50.481Z,6.70
2018-01-28T07:26:18.705Z,6.70
2018-01-28T07:28:47.017Z,6.70
2018-01-28T07:31:15.262Z,6.70
2018-01-28T07:33:44.283Z,6.70
2018-01-28T07:36:13.274Z,6.70
2018-01-28T07:38:42.303Z,6.70
2018-01-28T07:41:10.538Z,6.70
2018-01-28T07:43:39.586Z,6.80
2018-01-28T07:46:07.822Z,6.80
2018-01-28T07:48:36.082Z,6.90
2018-01-28T07:51:05.117Z,6.90
2018-01-28T07:53:34.100Z,6.80
2018-01-28T07:56:02.362Z,6.80
2018-01-28T07:58:30.623Z,6.70
2018-01-28T08:00:59.677Z,6.80
2018-01-28T08:03:27.944Z,6.80
2018-01-28T08:05:56.202Z,6.80
2018-01-28T08:08:24.959Z,6.90
2018-01-28T08:10:57.684Z,6.90
2018-01-28T08:13:40.822Z,6.90
2018-01-28T08:16:09.054Z,6.90
2018-01-28T08:18:38.083Z,6.80
2018-01-28T08:21:06.363Z,6.80
2018-01-28T08:23:34.602Z,6.80
2018-01-28T08:26:03.649Z,6.80
2018-01-28T08:28:50.656Z,6.80
2018-01-28T08:31:18.923Z,6.90
2018-01-28T08:33:47.225Z,7.00
2018-01-28T08:36:15.477Z,6.90
2018-01-28T08:38:43.707Z,6.90
2018-01-28T08:41:12.000Z,7.00
2018-01-28T08:43:40.197Z,7.00
2018-01-28T08:46:08.446Z,7.00
2018-01-28T08:48:37.491Z,7.10
2018-01-28T08:51:05.750Z,7.10
2018-01-28T08:53:34.006Z,7.10
2018-01-28T08:56:02.204Z,7.20
2018-01-28T08:58:30.457Z,7.20
2018-01-28T09:00:59.500Z,7.30
2018-01-28T09:03:27.734Z,7.30
2018-01-28T09:05:56.750Z,7.40
2018-01-28T09:08:25.024Z,7.40
2018-01-28T09:10:53.259Z,7.40
2018-01-28T09:13:22.279Z,7.50
2018-01-28T09:15:51.289Z,7.60
2018-01-28T09:18:19.583Z,7.60
2018-01-28T09:20:47.814Z,7.60
2018-01-28T09:23:16.869Z,7.80
2018-01-28T09:25:45.099Z,7.80
2018-01-28T09:28:14.144Z,7.70
2018-01-28T09:30:42.386Z,7.70
2018-01-28T09:33:10.637Z,7.60
2018-01-28T09:35:39.677Z,7.60
2018-01-28T09:38:07.919Z,7.60
2018-01-28T09:40:36.165Z,7.70
2018-01-28T09:43:04.410Z,7.70
2018-01-28T09:45:32.713Z,7.60
2018-01-28T09:48:00.930Z,7.70
2018-01-28T09:50:29.681Z,7.80
2018-01-28T09:52:57.914Z,7.80
2018-01-28T09:55:26.175Z,7.80
2018-01-28T09:57:55.189Z,7.90
2018-01-28T10:00:23.448Z,7.80
2018-01-28T10:02:52.553Z,8.00
2018-01-28T10:05:20.835Z,8.00
2018-01-28T10:07:49.131Z,8.00
2018-01-28T10:10:17.366Z,8.00
2018-01-28T10:12:46.446Z,8.10
2018-01-28T10:15:14.703Z,8.10
2018-01-28T10:17:42.985Z,8.00
2018-01-28T10:20:12.017Z,8.00
2018-01-28T10:22:41.074Z,8.10
2018-01-28T10:25:09.330Z,8.00
2018-01-28T10:27:37.583Z,8.10
2018-01-28T10:30:06.735Z,8.30
2018-01-28T10:32:34.970Z,8.30
2018-01-28T10:35:03.294Z,8.40
2018-01-28T10:37:33.114Z,8.40
2018-01-28T10:40:01.380Z,8.40
2018-01-28T10:42:29.644Z,8.40
2018-01-28T10:44:59.459Z,8.50
2018-01-28T10:47:27.734Z,8.50
2018-01-28T10:49:56.011Z,8.60
2018-01-28T10:52:24.247Z,8.70
2018-01-28T10:54:52.545Z,8.70
2018-01-28T10:57:20.834Z,8.70
2018-01-28T10:59:49.135Z,8.60
2018-01-28T11:02:19.159Z,8.50
2018-01-28T11:04:50.408Z,8.50
2018-01-28T11:07:18.717Z,8.70
2018-01-28T11:09:46.967Z,8.50
2018-01-28T11:12:15.246Z,8.40
2018-01-28T11:14:43.543Z,8.40
2018-01-28T11:17:11.797Z,8.50
2018-01-28T11:19:40.077Z,8.50
2018-01-28T11:22:08.371Z,8.70
2018-01-28T11:24:37.423Z,8.90
2018-01-28T11:27:05.725Z,8.90
2018-01-28T11:29:33.963Z,8.90
2018-01-28T11:32:02.237Z,8.90
2018-01-28T11:34:30.515Z,9.00
2018-01-28T11:36:58.793Z,9.00
2018-01-28T11:39:27.094Z,9.00
2018-01-28T11:41:55.379Z,9.00
2018-01-28T11:44:23.679Z,9.10
2018-01-28T11:46:51.923Z,9.20
2018-01-28T11:49:20.207Z,9.30
2018-01-28T11:51:48.474Z,9.40
2018-01-28T11:54:16.745Z,9.40
2018-01-28T11:56:45.004Z,9.40
2018-01-28T11:59:13.249Z,9.30
2018-01-28T12:01:42.266Z,9.50
2018-01-28T12:04:10.546Z,9.50
2018-01-28T12:06:38.873Z,9.70
2018-01-28T12:09:07.132Z,9.90
2018-01-28T12:11:35.424Z,9.70
2018-01-28T12:14:03.725Z,9.90
2018-01-28T12:16:31.979Z,9.90
2018-01-28T12:19:01.084Z,10.00
2018-01-28T12:21:29.456Z,10.00
2018-01-28T12:23:57.792Z,10.10
2018-01-28T12:26:27.349Z,10.20
2018-01-28T12:28:56.417Z,10.10
2018-01-28T12:31:24.697Z,10.10
2018-01-28T12:33:52.972Z,10.00
2018-01-28T12:36:21.359Z,10.10
2018-01-28T12:38:49.606Z,10.00
2018-01-28T12:41:17.910Z,9.80
2018-01-28T12:43:46.174Z,9.80
2018-01-28T12:46:14.455Z,10.00
2018-01-28T12:48:42.737Z,10.00
2018-01-28T12:51:10.999Z,9.90
2018-01-28T12:53:39.285Z,10.00
2018-01-28T12:56:07.590Z,9.80
2018-01-28T12:58:35.909Z,9.80
2018-01-28T13:01:05.079Z,9.80
2018-01-28T13:03:33.373Z,9.80
2018-01-28T13:06:02.430Z,9.90
2018-01-28T13:08:30.673Z,9.90
2018-01-28T13:10:58.945Z,10.00
2018-01-28T13:13:27.185Z,10.10
2018-01-28T13:15:55.478Z,10.20
2018-01-28T13:18:23.918Z,10.10
2018-01-28T13:20:52.230Z,10.00
2018-01-28T13:23:20.512Z,10.10
2018-01-28T13:25:49.734Z,10.20
2018-01-28T13:28:18.061Z,10.20
2018-01-28T13:30:46.336Z,10.30
2018-01-28T13:33:14.613Z,10.60
2018-01-28T13:35:42.880Z,10.60
2018-01-28T13:38:11.169Z,10.40
2018-01-28T13:40:39.580Z,10.30
2018-01-28T13:43:07.813Z,10.30
2018-01-28T13:45:36.113Z,10.30
2018-01-28T13:48:05.279Z,10.20
2018-01-28T13:50:33.612Z,10.20
2018-01-28T13:53:02.650Z,10.00
2018-01-28T13:55:31.084Z,10.00
2018-01-28T13:57:59.382Z,10.10
2018-01-28T14:00:28.467Z,10.20
2018-01-28T14:02:56.704Z,10.20
2018-01-28T14:05:25.006Z,10.20
2018-01-28T14:07:53.346Z,10.00
2018-01-28T14:10:21.626Z,9.90
2018-01-28T14:12:50.046Z,10.10
2018-01-28T14:15:18.445Z,9.90
2018-01-28T14:17:46.712Z,10.00
2018-01-28T14:20:14.930Z,10.00
2018-01-28T14:22:43.227Z,9.90
2018-01-28T14:25:11.528Z,10.00
2018-01-28T14:27:39.786Z,10.00
2018-01-28T14:30:08.068Z,10.00
2018-01-28T14:32:36.345Z,10.10
2018-01-28T14:35:04.627Z,10.20
2018-01-28T14:37:32.839Z,10.10
2018-01-28T14:40:01.126Z,10.20
2018-01-28T14:42:29.387Z,10.20
2018-01-28T14:44:58.482Z,10.10
2018-01-28T14:47:26.716Z,10.10
2018-01-28T14:49:55.014Z,10.00
2018-01-28T14:52:23.239Z,10.10
2018-01-28T14:54:51.566Z,10.00
2018-01-28T14:57:19.826Z,9.80
2018-01-28T14:59:48.086Z,9.80
2018-01-28T15:02:16.342Z,9.80
2018-01-28T15:04:45.401Z,9.70
2018-01-28T15:07:13.671Z,9.70
2018-01-28T15:09:41.986Z,9.80
2018-01-28T15:12:11.004Z,9.90
2018-01-28T15:14:39.279Z,9.80
2018-01-28T15:17:07.535Z,9.80
2018-01-28T15:19:36.572Z,9.80
2018-01-28T15:22:04.955Z,9.70
2018-01-28T15:24:33.244Z,9.70
2018-01-28T15:27:01.513Z,9.70
2018-01-28T15:29:30.680Z,9.70
2018-01-28T15:31:58.988Z,9.60
2018-01-28T15:34:27.306Z,9.70
2018-01-28T15:36:56.842Z,9.60
2018-01-28T15:39:25.888Z,9.70
2018-01-28T15:41:54.296Z,9.70
2018-01-28T15:44:22.725Z,9.70
2018-01-28T15:46:51.040Z,9.60
2018-01-28T15:49:19.344Z,9.50
2018-01-28T15:51:48.340Z,9.60
2018-01-28T15:54:16.732Z,9.60
2018-01-28T15:56:45.006Z,9.50
2018-01-28T15:59:14.004Z,9.60
2018-01-28T16:01:42.329Z,9.60
2018-01-28T16:04:10.654Z,9.60
2018-01-28T16:06:39.972Z,9.70
2018-01-28T16:09:08.377Z,9.70
2018-01-28T16:11:38.118Z,9.60
2018-01-28T16:14:06.359Z,9.60
2018-01-28T16:16:34.608Z,9.60
2018-01-28T16:19:02.901Z,9.70
2018-01-28T16:21:31.205Z,9.70
2018-01-28T16:23:59.486Z,9.60
2018-01-28T16:26:27.736Z,9.60
2018-01-28T16:28:56.078Z,9.60
2018-01-28T16:31:24.384Z,9.60
2018-01-28T16:33:53.445Z,9.60
2018-01-28T16:36:23.589Z,9.60
2018-01-28T16:38:51.914Z,9.60
2018-01-28T16:44:30.100Z,9.50
2018-01-28T16:46:58.420Z,9.50
2018-01-28T16:49:26.707Z,9.50
2018-01-28T16:51:55.019Z,9.50
2018-01-28T16:54:23.325Z,9.50
2018-01-28T16:56:51.835Z,9.50
2018-01-28T16:59:27.681Z,9.50
2018-01-28T17:02:03.028Z,9.50
2018-01-28T17:04:31.331Z,9.60
2018-01-28T17:06:59.786Z,9.60
2018-01-28T17:09:28.064Z,9.60
2018-01-28T17:11:56.503Z,9.60
2018-01-28T17:14:25.596Z,9.60
2018-01-28T17:16:53.857Z,9.60
2018-01-28T17:19:22.355Z,9.50
2018-01-28T17:21:51.406Z,9.60
2018-01-28T17:24:19.694Z,9.60
2018-01-28T17:26:48.436Z,9.60
2018-01-28T17:29:17.530Z,9.70
2018-01-28T17:31:48.717Z,9.70
2018-01-28T17:34:17.086Z,9.70
2018-01-28T17:36:45.408Z,9.60
2018-01-28T17:39:14.430Z,9.60
2018-01-28T17:41:42.862Z,9.60
2018-01-28T17:44:11.171Z,9.40
2018-01-28T17:46:39.521Z,9.40
2018-01-28T17:49:07.794Z,9.30
2018-01-28T17:51:36.064Z,9.40
2018-01-28T17:54:05.465Z,9.30
2018-01-28T17:56:34.247Z,9.30
2018-01-28T17:59:02.534Z,9.40
2018-01-28T18:01:30.820Z,9.40
2018-01-28T18:03:59.152Z,9.30
2018-01-28T18:06:28.173Z,9.20
2018-01-28T18:08:56.544Z,9.20
2018-01-28T18:11:24.830Z,9.30
2018-01-28T18:13:53.122Z,9.30
2018-01-28T18:16:21.468Z,9.40
2018-01-28T18:18:50.538Z,9.40
2018-01-28T18:21:19.640Z,9.40
2018-01-28T18:23:47.931Z,9.40
2018-01-28T18:26:17.840Z,9.40
2018-01-28T18:28:46.873Z,9.30
2018-01-28T18:31:15.738Z,9.30
2018-01-28T18:33:44.020Z,9.30
2018-01-28T18:36:12.456Z,9.30
2018-01-28T18:38:40.742Z,9.30
2018-01-28T18:41:09.061Z,9.30
2018-01-28T18:43:38.292Z,9.30
2018-01-28T18:46:06.622Z,9.30
2018-01-28T18:48:35.276Z,9.40
2018-01-28T18:51:03.543Z,9.50
2018-01-28T18:53:31.897Z,9.50
2018-01-28T18:56:00.240Z,9.40
2018-01-28T18:58:29.418Z,9.40
2018-01-28T19:00:58.570Z,9.50
2018-01-28T19:03:26.996Z,9.50
2018-01-28T19:05:55.263Z,9.50
2018-01-28T19:08:23.539Z,9.50
2018-01-28T19:10:51.878Z,9.40
2018-01-28T19:13:20.197Z,9.50
2018-01-28T19:15:48.618Z,9.50
2018-01-28T19:18:17.046Z,9.40
2018-01-28T19:20:45.351Z,9.40
2018-01-28T19:23:13.796Z,9.50
2018-01-28T19:25:42.311Z,9.60
2018-01-28T19:28:11.650Z,9.60
2018-01-28T19:30:40.501Z,9.60
2018-01-28T19:33:08.968Z,9.60
2018-01-28T19:35:37.297Z,9.60
2018-01-28T19:38:05.651Z,9.50
2018-01-28T19:40:33.983Z,9.50
2018-01-28T19:43:03.579Z,9.60
2018-01-28T19:45:31.853Z,9.60
2018-01-28T19:48:00.220Z,9.60
2018-01-28T19:50:29.487Z,9.70
2018-01-28T19:52:57.780Z,9.70
2018-01-28T19:55:28.425Z,9.70
2018-01-28T19:57:57.083Z,9.80
2018-01-28T20:00:27.203Z,9.70
2018-01-28T20:02:57.019Z,9.70
2018-01-28T20:05:25.431Z,9.70
2018-01-28T20:07:55.011Z,9.80
2018-01-28T20:10:24.032Z,9.80
2018-01-28T20:12:53.068Z,9.80
2018-01-28T20:15:21.393Z,9.80
2018-01-28T20:17:49.969Z,9.80
2018-01-28T20:20:18.925Z,9.80
2018-01-28T20:22:47.614Z,9.80
2018-01-28T20:25:16.955Z,9.80
2018-01-28T20:27:45.923Z,9.80
2018-01-28T20:30:14.248Z,9.80
2018-01-28T20:32:43.925Z,9.90
2018-01-28T20:35:12.169Z,9.90
2018-01-28T20:37:40.735Z,9.80
2018-01-28T20:40:09.761Z,9.80
2018-01-28T20:42:38.039Z,9.80
2018-01-28T20:45:06.383Z,9.80
2018-01-28T20:47:34.720Z,9.80
2018-01-28T20:50:03.258Z,9.80
2018-01-28T20:52:31.582Z,9.80
2018-01-28T20:55:00.087Z,9.90
2018-01-28T20:57:28.957Z,9.80
2018-01-28T20:59:58.335Z,9.90
2018-01-28T21:02:26.611Z,10.00
2018-01-28T21:04:55.377Z,10.00
2018-01-28T21:07:23.769Z,10.00
2018-01-28T21:09:52.121Z,10.00
2018-01-28T21:12:22.188Z,10.00
2018-01-28T21:14:51.414Z,10.00
2018-01-28T21:17:21.132Z,9.90
2018-01-28T21:19:50.209Z,10.00
2018-01-28T21:22:20.039Z,10.00
2018-01-28T21:24:49.124Z,10.00
2018-01-28T21:27:17.410Z,10.00
2018-01-28T21:29:45.691Z,10.00
2018-01-28T21:32:13.941Z,9.90
2018-01-28T21:34:42.251Z,10.00
2018-01-28T21:37:11.261Z,10.00
2018-01-28T21:39:39.525Z,10.00
2018-01-28T21:42:08.568Z,10.10
2018-01-28T21:44:36.825Z,10.10
2018-01-28T21:47:05.086Z,10.10
2018-01-28T21:49:33.391Z,10.00
2018-01-28T21:52:02.799Z,10.00
2018-01-28T21:54:31.075Z,10.00
2018-01-28T21:56:59.424Z,10.00
2018-01-28T21:59:27.680Z,9.90
2018-01-28T22:01:56.894Z,10.00
2018-01-28T22:04:25.938Z,9.90
2018-01-28T22:06:54.201Z,9.90
2018-01-28T22:09:28.364Z,9.80
2018-01-28T22:11:56.602Z,9.90
2018-01-28T22:14:24.865Z,9.90
2018-01-28T22:16:53.154Z,9.80
2018-01-28T22:19:21.415Z,9.80
2018-01-28T22:21:49.696Z,9.70
2018-01-28T22:24:17.962Z,9.80
2018-01-28T22:26:46.211Z,9.80
2018-01-28T22:29:15.252Z,9.90
2018-01-28T22:31:43.515Z,9.90
2018-01-28T22:34:11.810Z,9.90
2018-01-28T22:36:40.093Z,9.80
2018-01-28T22:39:08.353Z,9.80
2018-01-28T22:41:38.882Z,9.80
2018-01-28T22:44:07.865Z,9.80
2018-01-28T22:46:36.114Z,9.80
2018-01-28T22:49:05.145Z,9.80
2018-01-28T22:51:33.403Z,9.80
2018-01-28T22:54:01.663Z,9.80
2018-01-28T22:56:30.237Z,9.80
2018-01-28T22:58:59.252Z,9.70
2018-01-28T23:01:31.837Z,9.80
2018-01-28T23:04:00.864Z,9.70
2018-01-28T23:06:29.190Z,9.70
2018-01-28T23:08:57.400Z,9.70
2018-01-28T23:11:25.690Z,9.80
2018-01-28T23:13:53.981Z,9.80
2018-01-28T23:16:23.007Z,9.80
2018-01-28T23:18:51.268Z,9.70
2018-01-28T23:21:19.517Z,9.80
2018-01-28T23:23:47.749Z,9.80
2018-01-28T23:26:16.786Z,9.80
2018-01-28T23:28:45.021Z,9.80
2018-01-28T23:31:13.305Z,9.90
2018-01-28T23:33:42.317Z,9.80
2018-01-28T23:36:11.330Z,9.80
2018-01-28T23:38:39.569Z,9.80
2018-01-28T23:41:08.626Z,9.80
2018-01-28T23:43:36.893Z,9.70
2018-01-28T23:46:05.212Z,9.70
2018-01-28T23:48:33.455Z,9.70
2018-01-28T23:51:01.720Z,9.70
2018-01-28T23:53:29.971Z,9.70
2018-01-28T23:55:58.205Z,9.70
2018-01-28T23:58:27.011Z,9.80
